createdAt,value
2018-11-28T00:00:14.751Z,-0.41
2018-11-28T00:05:14.056Z,-0.11
2018-11-28T00:10:14.523Z,-0.11
2018-11-28T00:15:14.142Z,-0.01
2018-11-28T00:20:14.414Z,-0.01
2018-11-28T00:25:14.959Z,-0.01
2018-11-28T00:30:14.135Z,-0.01
2018-11-28T00:35:14.391Z,0.19
2018-11-28T00:40:14.839Z,0.19
2018-11-28T00:45:14.453Z,0.19
2018-11-28T00:50:14.747Z,0.29
2018-11-28T00:55:14.251Z,0.59
2018-11-28T01:00:14.442Z,0.69
2018-11-28T01:05:14.751Z,0.79
2018-11-28T01:10:14.240Z,0.89
2018-11-28T01:15:14.813Z,0.89
2018-11-28T01:20:14.113Z,1.09
2018-11-28T01:25:14.598Z,0.99
2018-11-28T01:30:14.806Z,0.99
2018-11-28T01:35:14.103Z,1.09
2018-11-28T01:40:14.556Z,0.99
2018-11-28T01:45:14.162Z,1.09
2018-11-28T01:50:14.483Z,0.99
2018-11-28T01:55:14.931Z,0.89
2018-11-28T02:00:14.150Z,0.89
2018-11-28T02:05:14.462Z,0.99
2018-11-28T02:10:14.940Z,0.89
2018-11-28T02:15:14.544Z,0.99
2018-11-28T02:20:14.826Z,1.09
2018-11-28T02:25:14.286Z,1.09
2018-11-28T02:30:14.552Z,1.09
2018-11-28T02:35:14.804Z,0.99
2018-11-28T02:40:14.274Z,0.99
2018-11-28T02:45:14.872Z,0.89
2018-11-28T02:50:14.252Z,0.89
2018-11-28T02:55:14.679Z,0.89
2018-11-28T03:00:14.942Z,0.99
2018-11-28T03:05:14.207Z,1.09
2018-11-28T03:10:14.680Z,1.09
2018-11-28T03:15:14.309Z,1.19
2018-11-28T03:20:14.559Z,1.19
2018-11-28T03:25:15.026Z,0.99
2018-11-28T03:30:14.252Z,0.89
2018-11-28T03:35:14.537Z,0.99
2018-11-28T03:40:15.014Z,0.89
2018-11-28T03:45:14.616Z,0.79
2018-11-28T03:50:14.856Z,0.99
2018-11-28T03:55:14.350Z,1.19
2018-11-28T04:00:14.583Z,1.19
2018-11-28T04:05:14.853Z,1.29
2018-11-28T04:10:14.377Z,1.29
2018-11-28T04:15:13.940Z,1.39
2018-11-28T04:20:14.284Z,1.39
2018-11-28T04:25:14.677Z,1.29
2018-11-28T04:30:14.900Z,1.39
2018-11-28T04:35:14.177Z,1.39
2018-11-28T04:40:14.615Z,1.39
2018-11-28T04:45:14.257Z,1.39
2018-11-28T04:50:14.491Z,1.49
2018-11-28T04:55:14.058Z,1.49
2018-11-28T05:00:14.246Z,1.49
2018-11-28T05:05:14.519Z,1.59
2018-11-28T05:10:14.980Z,1.69
2018-11-28T05:15:14.551Z,1.69
2018-11-28T05:20:14.851Z,1.79
2018-11-28T05:25:14.288Z,1.89
2018-11-28T05:30:14.497Z,1.99
2018-11-28T05:35:14.780Z,2.09
2018-11-28T05:40:14.277Z,2.19
2018-11-28T05:45:14.879Z,2.19
2018-11-28T05:50:14.158Z,2.29
2018-11-28T05:55:14.646Z,2.29
2018-11-28T06:00:14.841Z,2.29
2018-11-28T06:05:14.145Z,2.29
2018-11-28T06:10:14.594Z,2.39
2018-11-28T06:15:14.201Z,2.39
2018-11-28T06:20:14.501Z,2.39
2018-11-28T06:25:17.433Z,2.49
2018-11-28T06:30:14.162Z,2.49
2018-11-28T06:35:14.448Z,2.59
2018-11-28T06:40:14.895Z,2.69
2018-11-28T06:45:14.543Z,2.69
2018-11-28T06:50:14.774Z,2.69
2018-11-28T06:55:14.322Z,2.69
2018-11-28T07:00:14.480Z,2.69
2018-11-28T07:05:14.820Z,2.59
2018-11-28T07:10:14.262Z,2.69
2018-11-28T07:15:14.855Z,2.69
2018-11-28T07:20:14.126Z,2.79
2018-11-28T07:25:14.605Z,2.79
2018-11-28T07:30:14.866Z,2.79
2018-11-28T07:35:14.142Z,2.79
2018-11-28T07:40:14.605Z,2.89
2018-11-28T07:45:14.233Z,2.89
2018-11-28T07:50:14.459Z,2.99
2018-11-28T07:55:14.987Z,3.09
2018-11-28T08:00:14.367Z,3.09
2018-11-28T08:05:14.486Z,3.19
2018-11-28T08:10:14.908Z,3.19
2018-11-28T08:15:14.522Z,3.29
2018-11-28T08:20:14.791Z,3.29
2018-11-28T08:25:14.236Z,3.39
2018-11-28T08:30:14.459Z,3.39
2018-11-28T08:35:14.743Z,3.49
2018-11-28T08:40:14.241Z,3.49
2018-11-28T08:45:14.820Z,3.49
2018-11-28T08:50:14.141Z,3.59
2018-11-28T08:55:14.632Z,3.69
2018-11-28T09:00:14.821Z,3.79
2018-11-28T09:05:14.123Z,3.79
2018-11-28T09:10:15.097Z,3.79
2018-11-28T09:15:14.805Z,3.99
2018-11-28T09:20:14.481Z,3.99
2018-11-28T09:25:14.965Z,4.09
2018-11-28T09:30:14.194Z,4.19
2018-11-28T09:35:14.470Z,4.29
2018-11-28T09:40:14.968Z,4.39
2018-11-28T09:45:14.554Z,4.39
2018-11-28T09:50:14.853Z,4.49
2018-11-28T09:55:14.346Z,4.59
2018-11-28T10:00:14.556Z,4.69
2018-11-28T10:05:14.857Z,4.69
2018-11-28T10:10:14.477Z,4.79
2018-11-28T10:15:13.913Z,4.79
2018-11-28T10:20:14.162Z,4.89
2018-11-28T10:25:14.658Z,4.99
2018-11-28T10:30:14.884Z,4.99
2018-11-28T10:35:14.146Z,5.19
2018-11-28T10:40:14.634Z,5.19
2018-11-28T10:45:14.290Z,5.29
2018-11-28T10:50:14.554Z,5.39
2018-11-28T10:55:14.067Z,5.39
2018-11-28T11:00:14.235Z,5.59
2018-11-28T11:05:14.558Z,5.59
2018-11-28T11:10:14.055Z,5.79
2018-11-28T11:15:14.655Z,5.89
2018-11-28T11:20:14.647Z,5.89
2018-11-28T11:25:14.418Z,6.09
2018-11-28T11:30:14.585Z,6.09
2018-11-28T11:35:13.865Z,6.19
2018-11-28T11:40:14.419Z,6.19
2018-11-28T11:45:13.958Z,6.29
2018-11-28T11:50:14.271Z,6.29
2018-11-28T11:55:14.736Z,6.29
2018-11-28T12:00:13.971Z,6.29
2018-11-28T12:05:14.239Z,6.29
2018-11-28T12:10:14.700Z,6.39
2018-11-28T12:15:14.292Z,6.39
2018-11-28T12:20:15.202Z,6.39
2018-11-28T12:25:14.066Z,6.39
2018-11-28T12:30:14.262Z,6.49
2018-11-28T12:35:14.558Z,6.49
2018-11-28T12:40:14.034Z,6.49
2018-11-28T12:45:14.621Z,6.49
2018-11-28T12:50:13.911Z,6.49
2018-11-28T12:55:14.413Z,6.59
2018-11-28T13:00:14.627Z,6.59
2018-11-28T13:05:13.983Z,6.59
2018-11-28T13:10:14.425Z,6.69
2018-11-28T13:15:14.030Z,6.59
2018-11-28T13:20:14.304Z,6.69
2018-11-28T13:25:14.740Z,6.69
2018-11-28T13:30:13.986Z,6.79
2018-11-28T13:35:14.325Z,6.79
2018-11-28T13:40:14.708Z,6.79
2018-11-28T13:45:14.308Z,6.79
2018-11-28T13:50:14.612Z,6.69
2018-11-28T13:55:42.860Z,6.79
2018-11-28T14:00:14.357Z,6.69
2018-11-28T14:05:14.615Z,6.69
2018-11-28T14:10:14.481Z,6.79
2018-11-28T14:15:14.681Z,6.69
2018-11-28T14:20:13.942Z,6.69
2018-11-28T14:25:14.422Z,6.69
2018-11-28T14:30:14.626Z,6.59
2018-11-28T14:35:14.127Z,6.59
2018-11-28T14:40:14.439Z,6.59
2018-11-28T14:45:14.050Z,6.59
2018-11-28T14:50:14.310Z,6.59
2018-11-28T14:55:14.831Z,6.59
2018-11-28T15:00:14.050Z,6.49
2018-11-28T15:05:14.536Z,6.49
2018-11-28T15:10:14.776Z,6.49
2018-11-28T15:15:14.378Z,6.49
2018-11-28T15:20:14.636Z,6.49
2018-11-28T15:25:14.105Z,6.49
2018-11-28T15:30:14.322Z,6.39
2018-11-28T15:35:15.292Z,6.39
2018-11-28T15:40:14.279Z,6.39
2018-11-28T15:45:14.706Z,6.39
2018-11-28T15:50:14.070Z,6.39
2018-11-28T15:55:14.522Z,6.39
2018-11-28T16:00:14.740Z,6.39
2018-11-28T16:05:14.047Z,6.29
2018-11-28T16:10:14.493Z,6.39
2018-11-28T16:15:14.075Z,6.39
2018-11-28T16:20:14.844Z,6.39
2018-11-28T16:25:14.809Z,6.39
2018-11-28T16:30:14.032Z,6.39
2018-11-28T16:35:14.280Z,6.29
2018-11-28T16:40:14.756Z,6.29
2018-11-28T16:45:14.346Z,6.19
2018-11-28T16:50:14.660Z,6.19
2018-11-28T16:55:14.157Z,6.19
2018-11-28T17:00:13.990Z,6.09
2018-11-28T17:05:14.292Z,5.99
2018-11-28T17:10:14.802Z,5.99
2018-11-28T17:15:14.357Z,5.89
2018-11-28T17:20:14.695Z,5.79
2018-11-28T17:25:14.153Z,5.79
2018-11-28T17:30:19.740Z,5.79
2018-11-28T17:35:14.656Z,5.79
2018-11-28T17:40:14.111Z,5.79
2018-11-28T17:45:14.680Z,5.69
2018-11-28T17:50:14.015Z,5.69
2018-11-28T17:55:14.499Z,5.69
2018-11-28T18:00:14.679Z,5.69
2018-11-28T18:05:13.981Z,5.69
2018-11-28T18:10:14.445Z,5.69
2018-11-28T18:15:13.999Z,5.69
2018-11-28T18:20:14.285Z,5.69
2018-11-28T18:25:14.767Z,5.69
2018-11-28T18:30:13.980Z,5.69
2018-11-28T18:35:14.241Z,5.69
2018-11-28T18:40:14.747Z,5.69
2018-11-28T18:45:14.299Z,5.69
2018-11-28T18:50:14.606Z,5.69
2018-11-28T18:55:17.638Z,5.69
2018-11-28T19:00:14.330Z,5.69
2018-11-28T19:05:14.618Z,5.69
2018-11-28T19:10:14.064Z,5.79
2018-11-28T19:15:14.626Z,5.79
2018-11-28T19:20:13.952Z,5.79
2018-11-28T19:25:14.404Z,5.79
2018-11-28T19:30:14.574Z,5.79
2018-11-28T19:35:13.877Z,5.79
2018-11-28T19:40:14.355Z,5.79
2018-11-28T19:45:13.941Z,5.89
2018-11-28T19:50:14.176Z,6.09
2018-11-28T19:55:14.703Z,5.89
2018-11-28T20:00:13.938Z,5.89
2018-11-28T20:05:14.599Z,5.89
2018-11-28T20:10:14.694Z,5.89
2018-11-28T20:15:14.282Z,5.89
2018-11-28T20:20:14.511Z,5.89
2018-11-28T20:25:14.008Z,5.99
2018-11-28T20:30:14.216Z,5.99
2018-11-28T20:35:14.500Z,5.99
2018-11-28T20:40:14.015Z,5.99
2018-11-28T20:45:14.557Z,5.99
2018-11-28T20:50:13.894Z,5.99
2018-11-28T20:55:14.340Z,5.99
2018-11-28T21:00:14.635Z,6.09
2018-11-28T21:05:13.917Z,6.09
2018-11-28T21:10:14.491Z,6.09
2018-11-28T21:15:13.945Z,6.09
2018-11-28T21:20:14.215Z,6.19
2018-11-28T21:25:14.736Z,6.19
2018-11-28T21:30:13.937Z,6.19
2018-11-28T21:35:14.190Z,6.19
2018-11-28T21:40:14.693Z,6.19
2018-11-28T21:45:14.222Z,6.19
2018-11-28T21:50:14.515Z,6.19
2018-11-28T21:55:14.035Z,6.29
2018-11-28T22:00:14.223Z,6.29
2018-11-28T22:05:14.518Z,6.29
2018-11-28T22:10:14.004Z,6.39
2018-11-28T22:15:14.547Z,6.49
2018-11-28T22:20:13.855Z,6.39
2018-11-28T22:25:15.485Z,6.39
2018-11-28T22:30:14.515Z,6.39
2018-11-28T22:35:13.808Z,6.39
2018-11-28T22:40:14.262Z,6.49
2018-11-28T22:45:13.899Z,6.59
2018-11-28T22:50:14.198Z,6.49
2018-11-28T22:55:14.693Z,6.49
2018-11-28T23:00:13.892Z,6.49
2018-11-28T23:05:14.153Z,6.49
2018-11-28T23:10:14.619Z,6.59
2018-11-28T23:15:14.193Z,6.49
2018-11-28T23:20:14.521Z,6.59
2018-11-28T23:25:13.995Z,6.59
2018-11-28T23:30:14.177Z,6.59
2018-11-28T23:35:14.540Z,6.59
2018-11-28T23:40:14.064Z,6.59
2018-11-28T23:45:14.503Z,6.59
2018-11-28T23:50:13.818Z,6.59
2018-11-28T23:55:14.313Z,6.69
